Attica, Ohio
Current Conditions -  °F | °C
As of 11:52 AM on Tuesday 27 Jan 2015 (Local Time) from KMFD Reporting Station
Overcast Overcast  
Wind Chill:   Ceiling: 1500
Heat Index: 20°   Visibility: 7mi
Dew Point: 12°   Wind: 10mph
Humidity: 71%   Direction: 360°N
Pressure: 30.02"   Gusts: NA
Location:  41.06°N, 82.89°W
Report Text: KMFD 271652Z 36009KT 7SM BKN015 OVC022 M07/M11 A3002 RMK AO2 SNE09 SLP187 P0000 T10671111
Loading
Personal Weather Stations






























Interactive Weather Map New forecast layout! Learn more

10-Day Weather Forecast

Advertisements
Track Severe Weather on mobile